createdAt,value
2023-05-11T00:00:35.307Z,101624.28
2023-05-11T00:03:01.828Z,101623.69
2023-05-11T00:05:28.375Z,101627.09
2023-05-11T00:07:54.876Z,101623.66
2023-05-11T00:10:21.462Z,101621.06
2023-05-11T00:12:47.878Z,101626.13
2023-05-11T00:15:14.415Z,101627.91
2023-05-11T00:17:40.868Z,101627.03
2023-05-11T00:20:08.029Z,101625.50
2023-05-11T00:22:34.458Z,101623.00
2023-05-11T00:25:00.936Z,101613.66
2023-05-11T00:27:27.334Z,101605.91
2023-05-11T00:29:53.774Z,101600.81
2023-05-11T00:32:20.346Z,101606.81
2023-05-11T00:34:47.213Z,101616.28
2023-05-11T00:37:13.728Z,101613.66
2023-05-11T00:39:40.741Z,101616.28
2023-05-11T00:42:07.382Z,101619.78
2023-05-11T00:44:33.838Z,101621.56
2023-05-11T00:47:00.731Z,101621.66
2023-05-11T00:49:27.724Z,101620.78
2023-05-11T00:51:54.852Z,101624.25
2023-05-11T00:54:21.334Z,101613.97
2023-05-11T00:56:48.461Z,101616.53
2023-05-11T00:59:15.261Z,101621.66
2023-05-11T01:01:41.940Z,101615.66
2023-05-11T01:04:09.008Z,101614.69
2023-05-11T01:06:55.953Z,101613.91
2023-05-11T01:09:34.687Z,101616.53
2023-05-11T01:12:14.110Z,101619.16
2023-05-11T01:15:06.346Z,101622.63
2023-05-11T01:18:09.093Z,101621.84
2023-05-11T01:20:36.123Z,101623.50
2023-05-11T01:23:08.391Z,101627.78
2023-05-11T01:25:50.022Z,101625.31
2023-05-11T01:28:28.649Z,101629.59
2023-05-11T01:31:16.777Z,101631.31
2023-05-11T01:34:30.567Z,101624.63
2023-05-11T01:37:09.125Z,101629.75
2023-05-11T01:39:39.894Z,101621.19
2023-05-11T01:42:09.896Z,101614.44
2023-05-11T01:44:42.402Z,101611.03
2023-05-11T01:47:12.596Z,101622.25
2023-05-11T01:49:43.187Z,101623.97
2023-05-11T01:52:11.765Z,101632.66
2023-05-11T01:54:42.274Z,101639.53
2023-05-11T01:57:11.895Z,101630.25
2023-05-11T01:59:40.145Z,101632.84
2023-05-11T02:02:08.460Z,101636.22
2023-05-11T02:04:37.314Z,101626.00
2023-05-11T02:07:04.375Z,101626.09
2023-05-11T02:09:33.184Z,101631.19
2023-05-11T02:12:01.707Z,101632.09
2023-05-11T02:14:33.931Z,101633.81
2023-05-11T02:17:02.547Z,101638.09
2023-05-11T02:19:31.684Z,101632.25
2023-05-11T02:21:59.529Z,101635.75
2023-05-11T02:24:28.398Z,101637.47
2023-05-11T02:26:55.285Z,101637.47
2023-05-11T02:29:21.924Z,101641.69
2023-05-11T02:31:52.951Z,101641.63
2023-05-11T02:34:27.735Z,101635.75
2023-05-11T02:36:58.731Z,101634.94
2023-05-11T02:39:31.755Z,101640.03
2023-05-11T02:42:01.472Z,101641.69
2023-05-11T02:44:32.268Z,101643.38
2023-05-11T02:47:02.474Z,101640.06
2023-05-11T02:49:31.718Z,101642.59
2023-05-11T02:52:01.112Z,101636.59
2023-05-11T02:54:28.941Z,101634.03
2023-05-11T02:56:56.375Z,101631.47
2023-05-11T02:59:24.609Z,101632.31
2023-05-11T03:01:52.255Z,101642.59
2023-05-11T03:04:18.836Z,101644.34
2023-05-11T03:06:45.436Z,101651.22
2023-05-11T03:09:11.994Z,101654.63
2023-05-11T03:11:38.838Z,101647.81
2023-05-11T03:14:05.691Z,101645.28
2023-05-11T03:16:32.682Z,101643.59
2023-05-11T03:19:01.425Z,101642.72
2023-05-11T03:21:28.641Z,101648.69
2023-05-11T03:23:57.110Z,101642.66
2023-05-11T03:26:25.894Z,101640.91
2023-05-11T03:28:53.250Z,101638.34
2023-05-11T03:31:20.170Z,101633.19
2023-05-11T03:33:46.687Z,101635.75
2023-05-11T03:36:14.615Z,101628.84
2023-05-11T03:38:41.629Z,101626.28
2023-05-11T03:41:08.256Z,101623.75
2023-05-11T03:43:38.645Z,101624.66
2023-05-11T03:46:06.195Z,101623.03
2023-05-11T03:48:33.245Z,101624.72
2023-05-11T03:51:00.270Z,101625.56
2023-05-11T03:53:27.009Z,101621.31
2023-05-11T03:55:54.775Z,101615.31
2023-05-11T03:58:22.093Z,101611.88
2023-05-11T04:00:48.789Z,101623.91
2023-05-11T04:03:15.827Z,101634.25
2023-05-11T04:05:42.443Z,101623.16
2023-05-11T04:08:09.966Z,101632.59
2023-05-11T04:10:38.254Z,101632.53
2023-05-11T04:13:04.882Z,101631.81
2023-05-11T04:15:31.476Z,101633.63
2023-05-11T04:17:57.980Z,101630.16
2023-05-11T04:20:24.500Z,101633.66
2023-05-11T04:22:50.886Z,101636.25
2023-05-11T04:25:17.698Z,101633.72
2023-05-11T04:27:44.108Z,101644.00
2023-05-11T04:30:10.883Z,101640.56
2023-05-11T04:32:37.330Z,101643.16
2023-05-11T04:35:04.129Z,101642.28
2023-05-11T04:37:30.640Z,101649.19
2023-05-11T04:39:57.529Z,101650.03
2023-05-11T04:42:24.006Z,101650.06
2023-05-11T04:44:53.326Z,101651.78
2023-05-11T04:47:19.722Z,101639.75
2023-05-11T04:49:46.176Z,101650.81
2023-05-11T04:52:12.602Z,101649.88
2023-05-11T04:54:39.235Z,101656.66
2023-05-11T04:57:05.962Z,101657.56
2023-05-11T04:59:33.616Z,101659.31
2023-05-11T05:02:00.084Z,101655.00
2023-05-11T05:04:26.633Z,101655.00
2023-05-11T05:06:53.198Z,101656.59
2023-05-11T05:09:20.246Z,101650.56
2023-05-11T05:11:46.685Z,101654.75
2023-05-11T05:14:13.059Z,101653.78
2023-05-11T05:16:39.607Z,101664.06
2023-05-11T05:19:06.081Z,101666.63
2023-05-11T05:21:32.678Z,101667.38
2023-05-11T05:23:59.143Z,101660.34
2023-05-11T05:26:25.803Z,101668.78
2023-05-11T05:28:52.236Z,101667.06
2023-05-11T05:31:18.649Z,101666.03
2023-05-11T05:33:45.133Z,101667.47
2023-05-11T05:36:11.703Z,101671.75
2023-05-11T05:38:38.147Z,101668.34
2023-05-11T05:41:04.559Z,101675.97
2023-05-11T05:43:30.950Z,101680.09
2023-05-11T05:45:57.458Z,101679.25
2023-05-11T05:48:23.996Z,101686.84
2023-05-11T05:50:50.764Z,101687.56
2023-05-11T05:53:17.227Z,101690.09
2023-05-11T05:55:43.710Z,101695.19
2023-05-11T05:58:10.291Z,101701.16
2023-05-11T06:00:37.027Z,101702.66
2023-05-11T06:03:03.989Z,101702.53
2023-05-11T06:05:30.729Z,101702.47
2023-05-11T06:08:09.374Z,101705.63
2023-05-11T06:10:37.539Z,101703.69
2023-05-11T06:13:03.984Z,101708.63
2023-05-11T06:15:30.529Z,101699.94
2023-05-11T06:17:56.967Z,101707.59
2023-05-11T06:20:24.259Z,101703.00
2023-05-11T06:22:50.751Z,101713.19
2023-05-11T06:25:17.498Z,101719.06
2023-05-11T06:27:43.953Z,101711.34
2023-05-11T06:30:10.835Z,101713.78
2023-05-11T06:32:37.360Z,101715.31
2023-05-11T06:35:04.014Z,101713.38
2023-05-11T06:37:30.693Z,101715.72
2023-05-11T06:39:58.732Z,101715.66
2023-05-11T06:42:25.250Z,101721.50
2023-05-11T06:44:51.844Z,101719.75
2023-05-11T06:47:18.459Z,101722.06
2023-05-11T06:49:45.099Z,101726.81
2023-05-11T06:52:11.504Z,101716.34
2023-05-11T06:54:37.971Z,101726.66
2023-05-11T06:57:04.426Z,101727.31
2023-05-11T06:59:31.129Z,101728.72
2023-05-11T07:01:57.596Z,101728.53
2023-05-11T07:04:24.378Z,101727.44
2023-05-11T07:06:50.991Z,101724.81
2023-05-11T07:09:17.548Z,101721.28
2023-05-11T07:11:44.001Z,101721.22
2023-05-11T07:14:10.557Z,101721.88
2023-05-11T07:16:38.346Z,101724.25
2023-05-11T07:19:05.900Z,101720.66
2023-05-11T07:21:34.924Z,101720.34
2023-05-11T07:24:01.542Z,101721.47
2023-05-11T07:26:28.060Z,101723.19
2023-05-11T07:28:54.562Z,101717.69
2023-05-11T07:31:21.131Z,101722.47
2023-05-11T07:33:47.623Z,101731.09
2023-05-11T07:36:14.401Z,101724.69
2023-05-11T07:38:40.769Z,101727.81
2023-05-11T07:41:08.880Z,101722.91
2023-05-11T07:43:36.760Z,101727.53
2023-05-11T07:46:03.330Z,101714.75
2023-05-11T07:48:30.284Z,101718.31
2023-05-11T07:50:56.804Z,101716.03
2023-05-11T07:53:23.252Z,101716.03
2023-05-11T07:55:50.095Z,101723.13
2023-05-11T07:58:16.689Z,101721.44
2023-05-11T08:00:43.276Z,101725.78
2023-05-11T08:03:09.778Z,101722.41
2023-05-11T08:05:37.982Z,101729.03
2023-05-11T08:08:05.257Z,101724.69
2023-05-11T08:10:31.960Z,101724.53
2023-05-11T08:12:58.517Z,101733.66
2023-05-11T08:15:25.021Z,101738.53
2023-05-11T08:17:51.503Z,101730.03
2023-05-11T08:20:18.322Z,101732.69
2023-05-11T08:22:45.794Z,101740.38
2023-05-11T08:25:13.684Z,101736.47
2023-05-11T08:27:40.478Z,101732.69
2023-05-11T08:30:10.139Z,101738.63
2023-05-11T08:32:57.203Z,101734.59
2023-05-11T08:35:25.278Z,101729.75
2023-05-11T08:37:51.700Z,101732.81
2023-05-11T08:40:20.149Z,101735.75
2023-05-11T08:42:46.991Z,101728.75
2023-05-11T08:45:13.956Z,101728.91
2023-05-11T08:47:40.440Z,101727.72
2023-05-11T08:50:07.688Z,101732.38
2023-05-11T08:52:34.654Z,101731.19
2023-05-11T08:55:01.166Z,101732.03
2023-05-11T08:57:30.808Z,101735.47
2023-05-11T08:59:58.234Z,101735.66
2023-05-11T09:02:26.023Z,101734.34
2023-05-11T09:04:53.026Z,101729.44
2023-05-11T09:07:19.671Z,101730.13
2023-05-11T09:09:47.612Z,101732.38
2023-05-11T09:12:14.472Z,101729.75
2023-05-11T09:14:41.154Z,101725.13
2023-05-11T09:17:07.833Z,101728.94
2023-05-11T09:19:34.540Z,101726.28
2023-05-11T09:22:01.183Z,101726.94
2023-05-11T09:24:28.130Z,101728.00
2023-05-11T09:27:11.381Z,101724.56
2023-05-11T09:29:37.834Z,101726.88
2023-05-11T09:32:04.736Z,101723.56
2023-05-11T09:34:31.254Z,101725.53
2023-05-11T09:36:57.814Z,101729.97
2023-05-11T09:39:37.836Z,101724.25
2023-05-11T09:42:18.146Z,101718.84
2023-05-11T09:44:46.637Z,101715.59
2023-05-11T09:47:17.719Z,101723.53
2023-05-11T09:49:46.541Z,101720.31
2023-05-11T09:52:14.990Z,101727.41
2023-05-11T09:54:46.514Z,101723.25
2023-05-11T09:57:31.849Z,101722.91
2023-05-11T09:59:59.864Z,101714.28
2023-05-11T10:02:26.553Z,101730.66
2023-05-11T10:04:54.911Z,101725.31
2023-05-11T10:07:35.248Z,101717.44
2023-05-11T10:10:04.110Z,101725.66
2023-05-11T10:12:33.495Z,101721.97
2023-05-11T10:15:03.680Z,101720.94
2023-05-11T10:17:30.958Z,101723.91
2023-05-11T10:19:58.713Z,101726.59
2023-05-11T10:22:26.562Z,101734.28
2023-05-11T10:24:54.512Z,101736.59
2023-05-11T10:27:21.541Z,101726.06
2023-05-11T10:29:48.597Z,101732.88
2023-05-11T10:32:17.322Z,101731.63
2023-05-11T10:34:46.650Z,101740.06
2023-05-11T10:37:14.780Z,101737.06
2023-05-11T10:39:41.807Z,101734.59
2023-05-11T10:42:17.016Z,101741.41
2023-05-11T10:45:15.466Z,101736.31
2023-05-11T10:47:54.304Z,101744.34
2023-05-11T10:50:32.993Z,101741.66
2023-05-11T10:53:30.926Z,101751.97
2023-05-11T10:56:12.386Z,101760.41
2023-05-11T10:59:16.483Z,101771.94
2023-05-11T11:01:44.444Z,101761.84
2023-05-11T11:04:12.911Z,101758.16
2023-05-11T11:06:42.017Z,101762.22
2023-05-11T11:09:14.179Z,101755.97
2023-05-11T11:11:46.327Z,101757.34
2023-05-11T11:14:15.283Z,101763.75
2023-05-11T11:17:02.070Z,101764.88
2023-05-11T11:19:31.526Z,101767.88
2023-05-11T11:22:02.844Z,101758.44
2023-05-11T11:24:38.414Z,101755.88
2023-05-11T11:27:06.209Z,101760.34
2023-05-11T11:29:35.100Z,101753.53
2023-05-11T11:32:19.905Z,101752.56
2023-05-11T11:34:47.120Z,101749.13
2023-05-11T11:37:15.837Z,101748.34
2023-05-11T11:39:42.338Z,101748.19
2023-05-11T11:42:11.441Z,101748.94
2023-05-11T11:44:39.505Z,101746.19
2023-05-11T11:47:16.334Z,101746.84
2023-05-11T11:49:45.293Z,101756.38
2023-05-11T11:52:13.539Z,101761.53
2023-05-11T11:54:41.501Z,101764.19
2023-05-11T11:57:30.007Z,101766.78
2023-05-11T11:59:56.558Z,101763.31
2023-05-11T12:02:24.425Z,101771.16
2023-05-11T12:04:57.540Z,101767.00
2023-05-11T12:07:26.314Z,101770.28
2023-05-11T12:09:53.669Z,101768.34
2023-05-11T12:12:21.180Z,101770.78
2023-05-11T12:14:53.964Z,101768.09
2023-05-11T12:17:26.850Z,101768.91
2023-05-11T12:19:53.576Z,101763.75
2023-05-11T12:22:25.562Z,101762.63
2023-05-11T12:24:57.744Z,101757.41
2023-05-11T12:27:26.128Z,101752.00
2023-05-11T12:29:52.685Z,101751.97
2023-05-11T12:32:27.319Z,101750.13
2023-05-11T12:35:04.299Z,101749.84
2023-05-11T12:37:31.218Z,101751.28
2023-05-11T12:39:59.037Z,101752.81
2023-05-11T12:42:26.878Z,101752.66
2023-05-11T12:44:54.345Z,101755.13
2023-05-11T12:47:20.947Z,101752.41
2023-05-11T12:49:47.485Z,101753.97
2023-05-11T12:52:14.093Z,101753.00
2023-05-11T12:54:51.626Z,101757.16
2023-05-11T12:57:26.058Z,101751.88
2023-05-11T13:00:12.551Z,101757.66
2023-05-11T13:02:54.174Z,101756.59
2023-05-11T13:05:25.738Z,101758.22
2023-05-11T13:07:59.703Z,101761.84
2023-05-11T13:10:27.033Z,101754.09
2023-05-11T13:13:09.246Z,101754.59
2023-05-11T13:15:52.263Z,101760.41
2023-05-11T13:18:20.663Z,101754.34
2023-05-11T13:20:50.051Z,101751.72
2023-05-11T13:23:16.817Z,101754.19
2023-05-11T13:25:46.404Z,101761.44
2023-05-11T13:28:15.065Z,101753.81
2023-05-11T13:30:42.228Z,101748.34
2023-05-11T13:33:09.118Z,101748.22
2023-05-11T13:35:40.034Z,101744.56
2023-05-11T13:38:06.880Z,101747.88
2023-05-11T13:40:33.982Z,101751.47
2023-05-11T13:43:00.789Z,101750.72
2023-05-11T13:45:28.413Z,101754.97
2023-05-11T13:47:55.559Z,101745.59
2023-05-11T13:50:26.251Z,101748.06
2023-05-11T13:52:53.667Z,101742.66
2023-05-11T13:55:21.122Z,101742.63
2023-05-11T13:57:47.987Z,101743.56
2023-05-11T14:00:15.220Z,101744.41
2023-05-11T14:02:41.859Z,101742.72
2023-05-11T14:05:09.244Z,101737.69
2023-05-11T14:07:46.438Z,101736.72
2023-05-11T14:10:15.319Z,101726.53
2023-05-11T14:12:41.839Z,101730.88
2023-05-11T14:15:08.964Z,101725.88
2023-05-11T14:17:35.448Z,101732.06
2023-05-11T14:20:02.039Z,101737.81
2023-05-11T14:22:29.131Z,101732.66
2023-05-11T14:24:56.895Z,101735.38
2023-05-11T14:27:23.649Z,101721.50
2023-05-11T14:29:52.123Z,101729.19
2023-05-11T14:32:21.694Z,101735.16
2023-05-11T14:34:48.710Z,101733.69
2023-05-11T14:37:15.188Z,101732.50
2023-05-11T14:39:41.659Z,101734.66
2023-05-11T14:42:08.539Z,101735.03
2023-05-11T14:44:35.153Z,101737.19
2023-05-11T14:47:01.794Z,101737.94
2023-05-11T14:49:30.056Z,101741.19
2023-05-11T14:51:57.655Z,101736.09
2023-05-11T14:54:24.106Z,101734.69
2023-05-11T14:56:54.025Z,101731.91
2023-05-11T14:59:21.521Z,101732.25
2023-05-11T15:01:49.568Z,101729.38
2023-05-11T15:04:16.915Z,101734.22
2023-05-11T15:06:44.140Z,101734.88
2023-05-11T15:09:10.711Z,101733.63
2023-05-11T15:11:39.833Z,101738.13
2023-05-11T15:14:10.484Z,101731.34
2023-05-11T15:16:37.342Z,101734.09
2023-05-11T15:19:07.058Z,101738.94
2023-05-11T15:21:33.560Z,101730.69
2023-05-11T15:24:00.086Z,101733.63
2023-05-11T15:26:26.910Z,101734.06
2023-05-11T15:28:53.316Z,101742.88
2023-05-11T15:31:20.183Z,101738.84
2023-05-11T15:33:46.695Z,101738.66
2023-05-11T15:36:14.574Z,101752.00
2023-05-11T15:38:42.392Z,101741.56
2023-05-11T15:41:08.974Z,101753.69
2023-05-11T15:43:35.559Z,101759.22
2023-05-11T15:46:04.708Z,101761.31
2023-05-11T15:48:31.394Z,101764.84
2023-05-11T15:51:00.043Z,101759.50
2023-05-11T15:53:27.169Z,101754.06
2023-05-11T15:55:55.515Z,101760.31
2023-05-11T15:58:22.749Z,101760.69
2023-05-11T16:00:49.337Z,101764.00
2023-05-11T16:03:16.344Z,101769.13
2023-05-11T16:05:43.261Z,101761.41
2023-05-11T16:08:09.809Z,101758.13
2023-05-11T16:10:36.333Z,101753.22
2023-05-11T16:13:02.841Z,101750.81
2023-05-11T16:15:31.156Z,101754.31
2023-05-11T16:17:58.529Z,101748.06
2023-05-11T16:20:25.354Z,101746.34
2023-05-11T16:22:51.727Z,101748.66
2023-05-11T16:25:18.471Z,101736.59
2023-05-11T16:27:44.963Z,101738.69
2023-05-11T16:30:22.994Z,101738.75
2023-05-11T16:32:51.805Z,101737.84
2023-05-11T16:35:18.503Z,101741.44
2023-05-11T16:37:44.997Z,101735.25
2023-05-11T16:40:11.633Z,101735.94
2023-05-11T16:42:38.103Z,101737.22
2023-05-11T16:45:04.975Z,101743.81
2023-05-11T16:47:31.434Z,101749.50
2023-05-11T16:49:57.927Z,101741.50
2023-05-11T16:52:24.774Z,101746.16
2023-05-11T16:54:51.240Z,101750.09
2023-05-11T16:57:17.704Z,101746.03
2023-05-11T16:59:44.195Z,101747.13
2023-05-11T17:02:10.867Z,101755.88
2023-05-11T17:04:37.300Z,101746.91
2023-05-11T17:07:03.997Z,101753.97
2023-05-11T17:09:30.976Z,101761.22
2023-05-11T17:11:57.465Z,101751.84
2023-05-11T17:14:23.898Z,101760.72
2023-05-11T17:16:50.381Z,101765.19
2023-05-11T17:19:17.011Z,101771.53
2023-05-11T17:21:43.458Z,101762.63
2023-05-11T17:24:09.939Z,101773.53
2023-05-11T17:26:47.269Z,101773.19
2023-05-11T17:29:16.026Z,101782.19
2023-05-11T17:31:42.797Z,101780.91
2023-05-11T17:34:09.435Z,101776.81
2023-05-11T17:36:36.125Z,101778.13
2023-05-11T17:39:02.576Z,101781.91
2023-05-11T17:41:28.993Z,101788.88
2023-05-11T17:43:55.502Z,101783.16
2023-05-11T17:46:22.216Z,101780.91
2023-05-11T17:48:49.084Z,101779.47
2023-05-11T17:51:15.755Z,101783.72
2023-05-11T17:53:42.499Z,101790.69
2023-05-11T17:56:11.668Z,101786.44
2023-05-11T17:58:38.215Z,101788.28
2023-05-11T18:01:08.976Z,101778.81
2023-05-11T18:03:35.542Z,101791.66
2023-05-11T18:06:02.616Z,101789.38
2023-05-11T18:08:29.090Z,101780.00
2023-05-11T18:10:55.582Z,101776.69
2023-05-11T18:13:22.676Z,101783.75
2023-05-11T18:15:49.365Z,101790.88
2023-05-11T18:18:16.111Z,101783.25
2023-05-11T18:20:45.526Z,101784.19
2023-05-11T18:23:13.790Z,101785.13
2023-05-11T18:25:40.326Z,101788.78
2023-05-11T18:28:06.739Z,101795.84
2023-05-11T18:30:34.537Z,101785.53
2023-05-11T18:33:01.782Z,101782.13
2023-05-11T18:35:29.942Z,101788.31
2023-05-11T18:37:56.434Z,101789.25
2023-05-11T18:40:23.442Z,101797.94
2023-05-11T18:42:52.129Z,101798.81
2023-05-11T18:45:18.740Z,101799.06
2023-05-11T18:47:46.294Z,101806.84
2023-05-11T18:50:13.448Z,101805.31
2023-05-11T18:52:40.088Z,101812.31
2023-05-11T18:55:07.079Z,101808.13
2023-05-11T18:57:34.511Z,101812.66
2023-05-11T19:00:01.421Z,101819.69
2023-05-11T19:02:28.255Z,101822.44
2023-05-11T19:04:54.842Z,101816.56
2023-05-11T19:07:21.324Z,101817.63
2023-05-11T19:09:47.877Z,101822.84
2023-05-11T19:12:14.314Z,101828.94
2023-05-11T19:14:40.733Z,101829.00
2023-05-11T19:17:07.197Z,101831.69
2023-05-11T19:19:34.307Z,101827.53
2023-05-11T19:22:00.931Z,101828.50
2023-05-11T19:24:28.360Z,101833.75
2023-05-11T19:27:05.801Z,101845.81
2023-05-11T19:29:32.908Z,101842.44
2023-05-11T19:31:59.386Z,101845.22
2023-05-11T19:34:26.026Z,101846.97
2023-05-11T19:36:52.502Z,101844.56
2023-05-11T19:39:18.910Z,101846.41
2023-05-11T19:41:45.417Z,101851.59
2023-05-11T19:44:14.317Z,101854.22
2023-05-11T19:46:46.375Z,101857.69
2023-05-11T19:49:16.246Z,101862.91
2023-05-11T19:51:43.448Z,101865.59
2023-05-11T19:54:11.027Z,101864.88
2023-05-11T19:56:38.191Z,101862.31
2023-05-11T19:59:04.826Z,101870.03
2023-05-11T20:01:31.604Z,101876.94
2023-05-11T20:03:58.286Z,101875.34
2023-05-11T20:06:25.562Z,101873.66
2023-05-11T20:08:53.023Z,101878.03
2023-05-11T20:11:19.847Z,101878.91
2023-05-11T20:13:47.775Z,101881.56
2023-05-11T20:16:14.579Z,101884.22
2023-05-11T20:18:41.277Z,101885.13
2023-05-11T20:21:07.738Z,101886.94
2023-05-11T20:23:35.933Z,101895.53
2023-05-11T20:26:04.217Z,101893.09
2023-05-11T20:28:30.747Z,101898.31
2023-05-11T20:30:57.316Z,101893.25
2023-05-11T20:35:53.651Z,101895.19
2023-05-11T20:38:20.344Z,101895.38
2023-05-11T20:40:46.740Z,101895.53
2023-05-11T20:43:14.723Z,101893.09
2023-05-11T20:45:42.173Z,101894.84
2023-05-11T20:48:08.843Z,101889.75
2023-05-11T20:50:35.396Z,101888.00
2023-05-11T20:53:01.896Z,101891.38
2023-05-11T20:55:28.653Z,101884.50
2023-05-11T20:57:55.069Z,101885.41
2023-05-11T21:00:21.694Z,101882.84
2023-05-11T21:02:48.638Z,101890.56
2023-05-11T21:05:15.323Z,101889.75
2023-05-11T21:07:41.753Z,101888.91
2023-05-11T21:10:11.288Z,101886.38
2023-05-11T21:12:37.737Z,101887.34
2023-05-11T21:15:05.373Z,101893.41
2023-05-11T21:17:31.840Z,101894.28
2023-05-11T21:19:58.320Z,101889.19
2023-05-11T21:22:24.850Z,101890.13
2023-05-11T21:24:51.302Z,101893.59
2023-05-11T21:27:17.868Z,101887.59
2023-05-11T21:29:44.408Z,101885.88
2023-05-11T21:32:10.920Z,101893.59
2023-05-11T21:34:38.352Z,101889.38
2023-05-11T21:37:06.440Z,101897.91
2023-05-11T21:39:32.856Z,101898.00
2023-05-11T21:41:59.307Z,101897.13
2023-05-11T21:44:25.886Z,101901.50
2023-05-11T21:46:52.398Z,101895.56
2023-05-11T21:49:18.825Z,101898.16
2023-05-11T21:51:45.297Z,101898.19
2023-05-11T21:54:11.721Z,101902.50
2023-05-11T21:56:38.839Z,101899.97
2023-05-11T21:59:05.341Z,101898.25
2023-05-11T22:01:31.769Z,101900.81
2023-05-11T22:04:00.924Z,101906.81
2023-05-11T22:06:27.618Z,101905.91
2023-05-11T22:08:53.976Z,101905.13
2023-05-11T22:11:21.553Z,101904.25
2023-05-11T22:13:48.110Z,101900.84
2023-05-11T22:16:14.671Z,101907.78
2023-05-11T22:18:41.163Z,101902.69
2023-05-11T22:21:07.799Z,101904.47
2023-05-11T22:23:34.539Z,101901.16
2023-05-11T22:26:01.060Z,101903.72
2023-05-11T22:28:27.479Z,101899.47
2023-05-11T22:30:53.847Z,101891.81
2023-05-11T22:33:20.429Z,101897.84
2023-05-11T22:35:47.279Z,101897.91
2023-05-11T22:38:13.679Z,101898.75
2023-05-11T22:40:40.077Z,101897.06
2023-05-11T22:43:06.531Z,101899.63
2023-05-11T22:45:33.151Z,101895.34
2023-05-11T22:47:59.637Z,101897.13
2023-05-11T22:50:26.236Z,101900.63
2023-05-11T22:52:52.706Z,101899.78
2023-05-11T22:55:19.365Z,101900.72
2023-05-11T22:57:45.823Z,101905.94
2023-05-11T23:00:12.708Z,101906.00
2023-05-11T23:02:39.273Z,101903.47
2023-05-11T23:05:06.166Z,101898.50
2023-05-11T23:07:32.837Z,101902.00
2023-05-11T23:09:59.321Z,101905.50
2023-05-11T23:12:25.719Z,101898.75
2023-05-11T23:14:52.369Z,101901.47
2023-05-11T23:17:18.924Z,101898.16
2023-05-11T23:19:45.409Z,101903.38
2023-05-11T23:22:11.889Z,101897.47
2023-05-11T23:24:38.282Z,101906.97
2023-05-11T23:27:05.250Z,101895.94
2023-05-11T23:29:31.897Z,101904.50
2023-05-11T23:31:58.349Z,101906.28
2023-05-11T23:34:24.773Z,101905.50
2023-05-11T23:36:51.367Z,101897.06
2023-05-11T23:39:17.759Z,101894.53
2023-05-11T23:41:44.178Z,101898.06
2023-05-11T23:44:10.909Z,101898.09
2023-05-11T23:46:37.451Z,101900.72
2023-05-11T23:49:04.294Z,101893.88
2023-05-11T23:51:30.760Z,101907.50
2023-05-11T23:53:57.233Z,101894.72
2023-05-11T23:56:23.909Z,101902.44
2023-05-11T23:58:50.662Z,101897.38
